sensor_id;sensor_type;location;lat;lon;timestamp;pressure;altitude;pressure_sealevel;temperature;humidity
42007;BME280;27696;42.704;23.304;2022-08-30T00:02:38;95399.72;;;33.51;30.34
42007;BME280;27696;42.704;23.304;2022-08-30T00:05:04;95405.84;;;32.69;30.97
42007;BME280;27696;42.704;23.304;2022-08-30T00:07:29;95407.16;;;33.48;29.47
42007;BME280;27696;42.704;23.304;2022-08-30T00:09:54;95410.66;;;32.92;30.10
42007;BME280;27696;42.704;23.304;2022-08-30T00:12:20;95414.69;;;31.98;31.84
42007;BME280;27696;42.704;23.304;2022-08-30T00:14:45;95409.59;;;32.33;31.64
42007;BME280;27696;42.704;23.304;2022-08-30T00:17:11;95405.31;;;32.48;31.64
42007;BME280;27696;42.704;23.304;2022-08-30T00:19:36;95409.16;;;32.14;31.21
42007;BME280;27696;42.704;23.304;2022-08-30T00:22:02;95410.63;;;32.15;31.52
42007;BME280;27696;42.704;23.304;2022-08-30T00:24:27;95410.69;;;32.30;31.63
42007;BME280;27696;42.704;23.304;2022-08-30T00:26:53;95412.41;;;31.73;32.32
42007;BME280;27696;42.704;23.304;2022-08-30T00:29:18;95402.09;;;31.97;31.92
42007;BME280;27696;42.704;23.304;2022-08-30T00:31:43;95399.88;;;31.95;32.00
42007;BME280;27696;42.704;23.304;2022-08-30T00:34:09;95394.31;;;32.03;32.44
42007;BME280;27696;42.704;23.304;2022-08-30T00:36:34;95399.81;;;31.72;32.81
42007;BME280;27696;42.704;23.304;2022-08-30T00:39:00;95410.63;;;31.99;32.40
42007;BME280;27696;42.704;23.304;2022-08-30T00:41:25;95412.06;;;31.69;33.00
42007;BME280;27696;42.704;23.304;2022-08-30T00:43:50;95416.03;;;31.53;32.87
42007;BME280;27696;42.704;23.304;2022-08-30T00:46:16;95415.34;;;31.68;33.13
42007;BME280;27696;42.704;23.304;2022-08-30T00:48:42;95418.25;;;31.46;33.55
42007;BME280;27696;42.704;23.304;2022-08-30T00:51:10;95419.47;;;31.82;32.59
42007;BME280;27696;42.704;23.304;2022-08-30T00:53:37;95412.50;;;32.20;31.66
42007;BME280;27696;42.704;23.304;2022-08-30T00:56:03;95413.63;;;30.83;33.60
42007;BME280;27696;42.704;23.304;2022-08-30T00:58:39;95410.22;;;31.06;33.67
42007;BME280;27696;42.704;23.304;2022-08-30T01:01:06;95414.50;;;31.07;33.67
42007;BME280;27696;42.704;23.304;2022-08-30T01:03:31;95417.84;;;31.42;33.28
42007;BME280;27696;42.704;23.304;2022-08-30T01:05:57;95422.81;;;31.36;33.00
42007;BME280;27696;42.704;23.304;2022-08-30T01:08:23;95417.88;;;30.84;33.86
42007;BME280;27696;42.704;23.304;2022-08-30T01:10:49;95410.34;;;31.22;33.38
42007;BME280;27696;42.704;23.304;2022-08-30T01:13:15;95410.47;;;31.53;32.71
42007;BME280;27696;42.704;23.304;2022-08-30T01:15:41;95407.78;;;30.66;34.23
42007;BME280;27696;42.704;23.304;2022-08-30T01:18:08;95409.72;;;30.79;34.27
42007;BME280;27696;42.704;23.304;2022-08-30T01:20:39;95404.63;;;30.91;34.01
42007;BME280;27696;42.704;23.304;2022-08-30T01:23:09;95404.56;;;30.33;34.87
42007;BME280;27696;42.704;23.304;2022-08-30T01:25:36;95410.34;;;30.64;34.52
42007;BME280;27696;42.704;23.304;2022-08-30T01:28:05;95409.22;;;30.38;35.04
42007;BME280;27696;42.704;23.304;2022-08-30T01:30:31;95410.75;;;30.47;35.00
42007;BME280;27696;42.704;23.304;2022-08-30T01:33:01;95411.22;;;30.37;35.28
42007;BME280;27696;42.704;23.304;2022-08-30T01:35:27;95384.59;;;29.92;35.56
42007;BME280;27696;42.704;23.304;2022-08-30T01:37:53;95413.88;;;30.01;36.09
42007;BME280;27696;42.704;23.304;2022-08-30T01:40:18;95405.06;;;30.52;35.01
42007;BME280;27696;42.704;23.304;2022-08-30T01:42:44;95409.28;;;30.24;35.40
42007;BME280;27696;42.704;23.304;2022-08-30T01:45:10;95409.28;;;30.24;35.77
42007;BME280;27696;42.704;23.304;2022-08-30T01:47:35;95402.13;;;30.29;35.48
42007;BME280;27696;42.704;23.304;2022-08-30T01:50:01;95404.84;;;29.87;36.09
42007;BME280;27696;42.704;23.304;2022-08-30T01:52:27;95397.19;;;30.56;34.85
42007;BME280;27696;42.704;23.304;2022-08-30T01:54:52;95396.28;;;30.62;34.85
42007;BME280;27696;42.704;23.304;2022-08-30T01:57:18;95391.16;;;30.45;35.13
42007;BME280;27696;42.704;23.304;2022-08-30T01:59:45;95392.78;;;30.40;35.68
42007;BME280;27696;42.704;23.304;2022-08-30T02:02:12;95389.44;;;30.55;35.17
42007;BME280;27696;42.704;23.304;2022-08-30T02:04:39;95383.78;;;30.47;34.93
42007;BME280;27696;42.704;23.304;2022-08-30T02:07:04;95388.59;;;30.68;35.07
42007;BME280;27696;42.704;23.304;2022-08-30T02:09:30;95384.38;;;30.75;34.78
42007;BME280;27696;42.704;23.304;2022-08-30T02:11:55;95382.13;;;30.02;36.04
42007;BME280;27696;42.704;23.304;2022-08-30T02:14:20;95382.34;;;30.04;36.25
42007;BME280;27696;42.704;23.304;2022-08-30T02:16:45;95381.16;;;30.20;35.97
42007;BME280;27696;42.704;23.304;2022-08-30T02:19:12;95381.13;;;30.13;35.81
42007;BME280;27696;42.704;23.304;2022-08-30T02:21:37;95385.16;;;30.54;35.68
42007;BME280;27696;42.704;23.304;2022-08-30T02:24:03;95389.81;;;30.17;36.14
42007;BME280;27696;42.704;23.304;2022-08-30T02:26:28;95395.03;;;30.41;36.09
42007;BME280;27696;42.704;23.304;2022-08-30T02:28:53;95389.94;;;30.53;34.80
42007;BME280;27696;42.704;23.304;2022-08-30T02:31:20;95383.47;;;30.30;35.15
42007;BME280;27696;42.704;23.304;2022-08-30T02:33:45;95384.56;;;30.26;35.27
42007;BME280;27696;42.704;23.304;2022-08-30T02:36:11;95389.28;;;30.61;35.19
42007;BME280;27696;42.704;23.304;2022-08-30T02:38:36;95384.63;;;30.13;35.84
42007;BME280;27696;42.704;23.304;2022-08-30T02:41:02;95383.59;;;30.45;35.46
42007;BME280;27696;42.704;23.304;2022-08-30T02:43:27;95382.59;;;30.35;35.36
42007;BME280;27696;42.704;23.304;2022-08-30T02:45:53;95385.22;;;30.40;35.33
42007;BME280;27696;42.704;23.304;2022-08-30T02:48:18;95384.28;;;30.38;35.28
42007;BME280;27696;42.704;23.304;2022-08-30T02:50:45;95382.03;;;30.36;35.20
42007;BME280;27696;42.704;23.304;2022-08-30T02:53:11;95388.34;;;30.87;34.29
42007;BME280;27696;42.704;23.304;2022-08-30T02:55:36;95381.59;;;30.24;34.95
42007;BME280;27696;42.704;23.304;2022-08-30T02:58:02;95375.63;;;30.20;35.30
42007;BME280;27696;42.704;23.304;2022-08-30T03:00:27;95378.78;;;30.67;34.62
42007;BME280;27696;42.704;23.304;2022-08-30T03:02:52;95372.06;;;30.33;35.14
42007;BME280;27696;42.704;23.304;2022-08-30T03:05:18;95374.47;;;30.58;35.22
42007;BME280;27696;42.704;23.304;2022-08-30T03:07:43;95377.91;;;30.51;35.16
42007;BME280;27696;42.704;23.304;2022-08-30T03:10:10;95382.25;;;30.60;35.56
42007;BME280;27696;42.704;23.304;2022-08-30T03:12:35;95355.38;;;30.25;35.57
42007;BME280;27696;42.704;23.304;2022-08-30T03:15:00;95382.19;;;30.31;35.83
42007;BME280;27696;42.704;23.304;2022-08-30T03:17:26;95382.06;;;30.15;35.85
42007;BME280;27696;42.704;23.304;2022-08-30T03:19:51;95386.53;;;29.97;35.88
42007;BME280;27696;42.704;23.304;2022-08-30T03:22:17;95393.31;;;29.75;36.28
42007;BME280;27696;42.704;23.304;2022-08-30T03:24:42;95388.09;;;30.06;35.73
42007;BME280;27696;42.704;23.304;2022-08-30T03:27:09;95398.66;;;29.59;36.65
42007;BME280;27696;42.704;23.304;2022-08-30T03:29:34;95393.56;;;29.85;36.05
42007;BME280;27696;42.704;23.304;2022-08-30T03:32:00;95398.91;;;30.17;35.29
42007;BME280;27696;42.704;23.304;2022-08-30T03:34:25;95392.00;;;29.76;36.09
42007;BME280;27696;42.704;23.304;2022-08-30T03:36:51;95391.31;;;29.97;35.79
42007;BME280;27696;42.704;23.304;2022-08-30T03:39:17;95389.63;;;30.15;35.57
42007;BME280;27696;42.704;23.304;2022-08-30T03:41:42;95400.22;;;30.45;34.91
42007;BME280;27696;42.704;23.304;2022-08-30T03:44:09;95397.41;;;30.16;35.69
42007;BME280;27696;42.704;23.304;2022-08-30T03:46:35;95396.38;;;30.27;35.28
42007;BME280;27696;42.704;23.304;2022-08-30T03:49:00;95401.44;;;30.57;34.75
42007;BME280;27696;42.704;23.304;2022-08-30T03:51:26;95403.75;;;30.24;35.37
42007;BME280;27696;42.704;23.304;2022-08-30T03:53:51;95402.88;;;29.74;36.06
42007;BME280;27696;42.704;23.304;2022-08-30T03:56:16;95394.94;;;29.57;36.43
42007;BME280;27696;42.704;23.304;2022-08-30T03:58:43;95394.84;;;29.84;35.99
42007;BME280;27696;42.704;23.304;2022-08-30T04:01:08;95399.91;;;29.72;36.17
42007;BME280;27696;42.704;23.304;2022-08-30T04:03:33;95396.34;;;29.50;36.40
42007;BME280;27696;42.704;23.304;2022-08-30T04:05:59;95394.94;;;29.91;36.09
42007;BME280;27696;42.704;23.304;2022-08-30T04:08:25;95397.09;;;29.85;36.13
42007;BME280;27696;42.704;23.304;2022-08-30T04:10:50;95392.41;;;29.93;35.94
42007;BME280;27696;42.704;23.304;2022-08-30T04:13:17;95404.09;;;29.86;35.92
42007;BME280;27696;42.704;23.304;2022-08-30T04:15:42;95409.75;;;29.80;36.34
42007;BME280;27696;42.704;23.304;2022-08-30T04:18:08;95408.09;;;29.77;36.35
42007;BME280;27696;42.704;23.304;2022-08-30T04:20:34;95406.56;;;30.11;35.89
42007;BME280;27696;42.704;23.304;2022-08-30T04:22:59;95411.78;;;29.80;36.43
42007;BME280;27696;42.704;23.304;2022-08-30T04:25:26;95406.84;;;30.00;36.04
42007;BME280;27696;42.704;23.304;2022-08-30T04:27:51;95416.25;;;30.18;35.65
42007;BME280;27696;42.704;23.304;2022-08-30T04:30:16;95413.47;;;30.39;35.37
42007;BME280;27696;42.704;23.304;2022-08-30T04:32:42;95414.44;;;29.86;36.75
42007;BME280;27696;42.704;23.304;2022-08-30T04:35:08;95426.69;;;29.77;36.79
42007;BME280;27696;42.704;23.304;2022-08-30T04:37:34;95420.16;;;30.22;36.01
42007;BME280;27696;42.704;23.304;2022-08-30T04:39:59;95420.09;;;29.93;36.39
42007;BME280;27696;42.704;23.304;2022-08-30T04:42:25;95417.91;;;30.00;36.52
42007;BME280;27696;42.704;23.304;2022-08-30T04:44:51;95426.34;;;29.59;37.01
42007;BME280;27696;42.704;23.304;2022-08-30T04:47:16;95427.16;;;29.68;37.10
42007;BME280;27696;42.704;23.304;2022-08-30T04:49:42;95422.94;;;29.88;36.79
42007;BME280;27696;42.704;23.304;2022-08-30T04:52:07;95426.22;;;29.65;37.38
42007;BME280;27696;42.704;23.304;2022-08-30T04:54:34;95434.09;;;29.61;37.51
42007;BME280;27696;42.704;23.304;2022-08-30T04:57:00;95436.78;;;30.01;36.60
42007;BME280;27696;42.704;23.304;2022-08-30T04:59:25;95437.44;;;29.94;36.62
42007;BME280;27696;42.704;23.304;2022-08-30T05:01:51;95428.81;;;30.61;35.53
42007;BME280;27696;42.704;23.304;2022-08-30T05:04:16;95439.41;;;30.70;35.43
42007;BME280;27696;42.704;23.304;2022-08-30T05:06:41;95438.75;;;30.56;35.65
42007;BME280;27696;42.704;23.304;2022-08-30T05:09:06;95438.66;;;30.49;35.95
42007;BME280;27696;42.704;23.304;2022-08-30T05:11:34;95444.41;;;31.30;34.52
42007;BME280;27696;42.704;23.304;2022-08-30T05:13:59;95444.78;;;30.97;35.26
42007;BME280;27696;42.704;23.304;2022-08-30T05:16:25;95445.56;;;31.06;34.93
42007;BME280;27696;42.704;23.304;2022-08-30T05:18:50;95442.66;;;30.82;35.58
42007;BME280;27696;42.704;23.304;2022-08-30T05:21:17;95444.59;;;30.74;35.94
42007;BME280;27696;42.704;23.304;2022-08-30T05:23:43;95447.22;;;31.01;35.23
42007;BME280;27696;42.704;23.304;2022-08-30T05:26:10;95444.81;;;31.05;35.34
42007;BME280;27696;42.704;23.304;2022-08-30T05:28:36;95447.44;;;31.40;34.36
42007;BME280;27696;42.704;23.304;2022-08-30T05:31:02;95447.72;;;31.21;34.22
42007;BME280;27696;42.704;23.304;2022-08-30T05:33:27;95448.38;;;31.42;34.27
42007;BME280;27696;42.704;23.304;2022-08-30T05:35:53;95451.97;;;31.22;34.68
42007;BME280;27696;42.704;23.304;2022-08-30T05:38:18;95448.88;;;31.33;34.36
42007;BME280;27696;42.704;23.304;2022-08-30T05:40:43;95458.50;;;31.32;34.56
42007;BME280;27696;42.704;23.304;2022-08-30T05:43:09;95448.97;;;32.01;33.20
42007;BME280;27696;42.704;23.304;2022-08-30T05:45:35;95451.06;;;31.27;34.17
42007;BME280;27696;42.704;23.304;2022-08-30T05:48:00;95454.59;;;30.98;34.57
42007;BME280;27696;42.704;23.304;2022-08-30T05:50:26;95451.06;;;31.27;34.55
42007;BME280;27696;42.704;23.304;2022-08-30T05:52:51;95447.59;;;31.05;34.35
42007;BME280;27696;42.704;23.304;2022-08-30T05:55:16;95447.84;;;30.86;34.41
42007;BME280;27696;42.704;23.304;2022-08-30T05:57:43;95448.16;;;31.40;33.92
42007;BME280;27696;42.704;23.304;2022-08-30T06:00:10;95435.03;;;31.04;34.30
42007;BME280;27696;42.704;23.304;2022-08-30T06:02:36;95458.75;;;31.49;34.06
42007;BME280;27696;42.704;23.304;2022-08-30T06:05:02;95457.09;;;31.46;33.87
42007;BME280;27696;42.704;23.304;2022-08-30T06:07:28;95456.19;;;31.52;33.20
42007;BME280;27696;42.704;23.304;2022-08-30T06:09:54;95445.72;;;31.73;32.80
42007;BME280;27696;42.704;23.304;2022-08-30T06:12:19;95448.94;;;31.48;33.18
42007;BME280;27696;42.704;23.304;2022-08-30T06:14:44;95448.16;;;31.40;33.48
42007;BME280;27696;42.704;23.304;2022-08-30T06:17:10;95460.03;;;30.83;34.58
42007;BME280;27696;42.704;23.304;2022-08-30T06:19:35;95462.16;;;31.27;33.86
42007;BME280;27696;42.704;23.304;2022-08-30T06:22:00;95456.19;;;30.65;34.70
42007;BME280;27696;42.704;23.304;2022-08-30T06:24:25;95463.34;;;31.39;33.82
42007;BME280;27696;42.704;23.304;2022-08-30T06:26:51;95461.34;;;31.47;33.83
42007;BME280;27696;42.704;23.304;2022-08-30T06:29:17;95468.06;;;31.60;33.62
42007;BME280;27696;42.704;23.304;2022-08-30T06:31:43;95471.09;;;31.33;34.95
42007;BME280;27696;42.704;23.304;2022-08-30T06:34:09;95473.59;;;31.15;35.07
42007;BME280;27696;42.704;23.304;2022-08-30T06:36:34;95475.59;;;31.52;34.18
42007;BME280;27696;42.704;23.304;2022-08-30T06:39:00;95482.25;;;31.48;34.44
42007;BME280;27696;42.704;23.304;2022-08-30T06:41:26;95483.72;;;31.78;33.53
42007;BME280;27696;42.704;23.304;2022-08-30T06:43:52;95480.44;;;30.93;34.76
42007;BME280;27696;42.704;23.304;2022-08-30T06:46:19;95478.56;;;30.88;34.98
42007;BME280;27696;42.704;23.304;2022-08-30T06:48:44;95477.78;;;31.09;34.29
42007;BME280;27696;42.704;23.304;2022-08-30T06:51:10;95487.88;;;30.98;34.95
42007;BME280;27696;42.704;23.304;2022-08-30T06:53:35;95479.44;;;30.62;35.52
42007;BME280;27696;42.704;23.304;2022-08-30T06:56:02;95494.78;;;30.84;35.19
42007;BME280;27696;42.704;23.304;2022-08-30T06:58:28;95486.09;;;31.09;35.09
42007;BME280;27696;42.704;23.304;2022-08-30T07:00:54;95495.56;;;31.42;34.50
42007;BME280;27696;42.704;23.304;2022-08-30T07:03:19;95490.56;;;31.48;34.92
42007;BME280;27696;42.704;23.304;2022-08-30T07:05:46;95484.44;;;32.78;32.36
42007;BME280;27696;42.704;23.304;2022-08-30T07:08:11;95489.66;;;30.88;35.35
42007;BME280;27696;42.704;23.304;2022-08-30T07:10:37;95491.16;;;31.18;34.92
42007;BME280;27696;42.704;23.304;2022-08-30T07:13:02;95488.31;;;31.68;34.08
42007;BME280;27696;42.704;23.304;2022-08-30T07:15:28;95497.66;;;31.57;35.03
42007;BME280;27696;42.704;23.304;2022-08-30T07:17:53;95500.06;;;31.90;34.10
42007;BME280;27696;42.704;23.304;2022-08-30T07:20:37;95506.22;;;32.11;33.96
42007;BME280;27696;42.704;23.304;2022-08-30T07:23:02;95505.00;;;32.36;33.58
42007;BME280;27696;42.704;23.304;2022-08-30T07:25:27;95498.91;;;33.15;32.57
42007;BME280;27696;42.704;23.304;2022-08-30T07:27:53;95500.75;;;32.58;33.45
42007;BME280;27696;42.704;23.304;2022-08-30T07:30:18;95502.22;;;31.84;34.44
42007;BME280;27696;42.704;23.304;2022-08-30T07:32:43;95501.75;;;32.01;33.74
42007;BME280;27696;42.704;23.304;2022-08-30T07:35:09;95496.50;;;31.89;34.16
42007;BME280;27696;42.704;23.304;2022-08-30T07:37:34;95490.34;;;32.35;33.97
42007;BME280;27696;42.704;23.304;2022-08-30T07:40:00;95490.75;;;32.70;33.21
42007;BME280;27696;42.704;23.304;2022-08-30T07:42:25;95501.97;;;32.18;33.84
42007;BME280;27696;42.704;23.304;2022-08-30T07:44:50;95495.22;;;32.89;32.57
42007;BME280;27696;42.704;23.304;2022-08-30T07:47:16;95485.19;;;33.17;32.11
42007;BME280;27696;42.704;23.304;2022-08-30T07:49:41;95491.47;;;32.32;33.36
42007;BME280;27696;42.704;23.304;2022-08-30T07:52:06;95496.56;;;32.05;34.20
42007;BME280;27696;42.704;23.304;2022-08-30T07:54:32;95501.81;;;32.24;34.16
42007;BME280;27696;42.704;23.304;2022-08-30T07:56:57;95500.38;;;32.69;33.56
42007;BME280;27696;42.704;23.304;2022-08-30T08:02:25;95498.84;;;33.46;32.15
42007;BME280;27696;42.704;23.304;2022-08-30T08:04:50;95499.81;;;33.17;32.83
42007;BME280;27696;42.704;23.304;2022-08-30T08:07:16;95511.53;;;33.00;32.78
42007;BME280;27696;42.704;23.304;2022-08-30T08:09:41;95509.31;;;33.07;32.91
42007;BME280;27696;42.704;23.304;2022-08-30T08:12:06;95513.19;;;33.03;32.83
42007;BME280;27696;42.704;23.304;2022-08-30T08:14:32;95507.81;;;32.98;32.16
42007;BME280;27696;42.704;23.304;2022-08-30T08:16:57;95505.03;;;33.13;32.15
42007;BME280;27696;42.704;23.304;2022-08-30T08:19:23;95482.78;;;33.13;31.96
42007;BME280;27696;42.704;23.304;2022-08-30T08:21:48;95508.91;;;33.41;32.27
42007;BME280;27696;42.704;23.304;2022-08-30T08:24:13;95505.09;;;33.70;31.63
42007;BME280;27696;42.704;23.304;2022-08-30T08:26:39;95503.09;;;33.55;32.17
42007;BME280;27696;42.704;23.304;2022-08-30T08:29:05;95503.94;;;34.54;30.07
42007;BME280;27696;42.704;23.304;2022-08-30T08:31:30;95498.50;;;33.26;32.16
42007;BME280;27696;42.704;23.304;2022-08-30T08:33:56;95496.28;;;34.30;30.95
42007;BME280;27696;42.704;23.304;2022-08-30T08:36:24;95494.59;;;35.98;28.30
42007;BME280;27696;42.704;23.304;2022-08-30T08:38:49;95499.00;;;34.45;30.14
42007;BME280;27696;42.704;23.304;2022-08-30T08:43:49;95498.19;;;34.52;30.00
42007;BME280;27696;42.704;23.304;2022-08-30T08:46:17;95499.34;;;35.17;28.57
42007;BME280;27696;42.704;23.304;2022-08-30T08:48:47;95505.16;;;34.69;29.51
42007;BME280;27696;42.704;23.304;2022-08-30T08:51:14;95496.88;;;35.39;28.35
42007;BME280;27696;42.704;23.304;2022-08-30T08:54:00;95497.50;;;34.69;29.65
42007;BME280;27696;42.704;23.304;2022-08-30T08:56:27;95499.56;;;34.10;30.90
42007;BME280;27696;42.704;23.304;2022-08-30T08:58:53;95502.69;;;34.48;30.47
42007;BME280;27696;42.704;23.304;2022-08-30T09:01:24;95489.50;;;34.48;30.52
42007;BME280;27696;42.704;23.304;2022-08-30T09:03:50;95503.69;;;34.02;31.67
42007;BME280;27696;42.704;23.304;2022-08-30T09:06:23;95501.69;;;34.61;30.38
42007;BME280;27696;42.704;23.304;2022-08-30T09:08:52;95503.53;;;33.92;31.13
42007;BME280;27696;42.704;23.304;2022-08-30T09:11:22;95507.75;;;35.53;29.11
42007;BME280;27696;42.704;23.304;2022-08-30T09:13:48;95511.63;;;34.13;31.42
42007;BME280;27696;42.704;23.304;2022-08-30T09:16:43;95501.72;;;34.78;30.84
42007;BME280;27696;42.704;23.304;2022-08-30T09:18:58;95503.22;;;34.79;30.88
42007;BME280;27696;42.704;23.304;2022-08-30T09:21:24;95498.16;;;33.94;31.48
42007;BME280;27696;42.704;23.304;2022-08-30T09:23:58;95504.03;;;33.57;32.28
42007;BME280;27696;42.704;23.304;2022-08-30T09:26:32;95499.34;;;34.16;31.28
42007;BME280;27696;42.704;23.304;2022-08-30T09:28:57;95498.09;;;34.35;31.30
42007;BME280;27696;42.704;23.304;2022-08-30T09:31:26;95500.06;;;33.76;32.17
42007;BME280;27696;42.704;23.304;2022-08-30T09:33:55;95507.72;;;34.49;31.17
42007;BME280;27696;42.704;23.304;2022-08-30T09:36:26;95505.34;;;34.38;31.02
42007;BME280;27696;42.704;23.304;2022-08-30T09:38:59;95499.81;;;34.63;30.85
42007;BME280;27696;42.704;23.304;2022-08-30T09:41:38;95499.81;;;35.06;30.29
42007;BME280;27696;42.704;23.304;2022-08-30T09:44:08;95494.75;;;35.30;30.36
42007;BME280;27696;42.704;23.304;2022-08-30T09:46:41;95490.00;;;35.23;30.40
42007;BME280;27696;42.704;23.304;2022-08-30T09:49:19;95487.69;;;35.11;30.58
42007;BME280;27696;42.704;23.304;2022-08-30T09:51:48;95492.13;;;34.46;31.48
42007;BME280;27696;42.704;23.304;2022-08-30T09:54:18;95483.00;;;34.71;31.65
42007;BME280;27696;42.704;23.304;2022-08-30T10:04:45;95485.06;;;35.31;30.18
42007;BME280;27696;42.704;23.304;2022-08-30T10:09:51;95477.34;;;35.39;30.03
42007;BME280;27696;42.704;23.304;2022-08-30T10:22:29;95467.25;;;35.61;29.20
42007;BME280;27696;42.704;23.304;2022-08-30T10:25:07;95464.63;;;35.28;30.02
42007;BME280;27696;42.704;23.304;2022-08-30T10:27:42;95460.41;;;35.37;29.99
42007;BME280;27696;42.704;23.304;2022-08-30T10:30:12;95457.91;;;34.88;30.96
42007;BME280;27696;42.704;23.304;2022-08-30T10:37:30;95452.19;;;35.74;30.06
42007;BME280;27696;42.704;23.304;2022-08-30T10:40:01;95449.88;;;36.35;28.69
42007;BME280;27696;42.704;23.304;2022-08-30T10:42:47;95446.28;;;36.52;28.73
42007;BME280;27696;42.704;23.304;2022-08-30T10:45:15;95440.53;;;37.27;27.17
42007;BME280;27696;42.704;23.304;2022-08-30T10:47:43;95447.38;;;36.77;27.92
42007;BME280;27696;42.704;23.304;2022-08-30T10:50:20;95446.00;;;36.21;28.21
42007;BME280;27696;42.704;23.304;2022-08-30T10:52:57;95436.56;;;37.20;27.46
42007;BME280;27696;42.704;23.304;2022-08-30T10:55:32;95432.47;;;37.41;26.96
42007;BME280;27696;42.704;23.304;2022-08-30T10:57:59;95438.38;;;36.68;28.18
42007;BME280;27696;42.704;23.304;2022-08-30T11:00:28;95425.91;;;37.87;26.43
42007;BME280;27696;42.704;23.304;2022-08-30T11:08:10;95421.84;;;42.04;21.98
42007;BME280;27696;42.704;23.304;2022-08-30T11:10:47;95413.00;;;42.65;20.98
42007;BME280;27696;42.704;23.304;2022-08-30T11:13:19;95413.94;;;39.80;24.58
42007;BME280;27696;42.704;23.304;2022-08-30T11:18:23;95406.91;;;39.24;24.52
42007;BME280;27696;42.704;23.304;2022-08-30T11:20:50;95405.28;;;39.42;24.19
42007;BME280;27696;42.704;23.304;2022-08-30T11:25:52;95407.16;;;38.31;25.43
42007;BME280;27696;42.704;23.304;2022-08-30T11:33:40;95391.16;;;40.33;23.98
42007;BME280;27696;42.704;23.304;2022-08-30T11:36:06;95384.63;;;40.66;23.32
42007;BME280;27696;42.704;23.304;2022-08-30T11:48:48;95385.16;;;40.27;22.58
42007;BME280;27696;42.704;23.304;2022-08-30T11:51:22;95387.56;;;40.09;22.92
42007;BME280;27696;42.704;23.304;2022-08-30T11:53:55;95379.72;;;39.84;22.48
42007;BME280;27696;42.704;23.304;2022-08-30T11:56:25;95384.50;;;39.47;22.74
42007;BME280;27696;42.704;23.304;2022-08-30T12:01:30;95372.88;;;39.99;22.57
42007;BME280;27696;42.704;23.304;2022-08-30T12:09:06;95370.81;;;40.47;22.25
42007;BME280;27696;42.704;23.304;2022-08-30T12:13:57;95361.31;;;39.59;21.44
42007;BME280;27696;42.704;23.304;2022-08-30T12:16:23;95356.59;;;39.28;22.10
42007;BME280;27696;42.704;23.304;2022-08-30T12:19:08;95347.44;;;39.85;21.38
42007;BME280;27696;42.704;23.304;2022-08-30T12:21:35;95343.78;;;40.42;20.79
42007;BME280;27696;42.704;23.304;2022-08-30T12:24:06;95347.63;;;40.84;20.71
42007;BME280;27696;42.704;23.304;2022-08-30T12:31:38;95341.56;;;40.52;20.37
42007;BME280;27696;42.704;23.304;2022-08-30T12:34:04;95332.44;;;41.41;19.90
42007;BME280;27696;42.704;23.304;2022-08-30T12:36:34;95323.38;;;40.05;21.20
42007;BME280;27696;42.704;23.304;2022-08-30T12:41:32;95329.50;;;40.87;20.10
42007;BME280;27696;42.704;23.304;2022-08-30T12:43:57;95329.28;;;41.35;20.31
42007;BME280;27696;42.704;23.304;2022-08-30T12:46:23;95324.41;;;40.72;20.22
42007;BME280;27696;42.704;23.304;2022-08-30T12:48:49;95320.25;;;40.73;20.26
42007;BME280;27696;42.704;23.304;2022-08-30T12:51:28;95315.97;;;40.97;19.80
42007;BME280;27696;42.704;23.304;2022-08-30T12:54:00;95305.56;;;41.66;19.44
42007;BME280;27696;42.704;23.304;2022-08-30T12:56:43;95308.84;;;41.88;18.63
42007;BME280;27696;42.704;23.304;2022-08-30T12:59:08;95313.69;;;41.99;18.94
42007;BME280;27696;42.704;23.304;2022-08-30T13:01:34;95311.31;;;41.68;18.92
42007;BME280;27696;42.704;23.304;2022-08-30T13:04:10;95320.88;;;41.09;19.68
42007;BME280;27696;42.704;23.304;2022-08-30T13:06:41;95312.38;;;41.35;19.48
42007;BME280;27696;42.704;23.304;2022-08-30T13:09:08;95310.06;;;41.57;19.63
42007;BME280;27696;42.704;23.304;2022-08-30T13:11:34;95310.03;;;41.17;19.71
42007;BME280;27696;42.704;23.304;2022-08-30T13:16:43;95314.56;;;40.23;19.00
42007;BME280;27696;42.704;23.304;2022-08-30T13:21:56;95314.41;;;40.45;19.23
42007;BME280;27696;42.704;23.304;2022-08-30T13:24:22;95307.41;;;40.46;19.19
42007;BME280;27696;42.704;23.304;2022-08-30T13:26:47;95307.84;;;41.55;18.91
42007;BME280;27696;42.704;23.304;2022-08-30T13:29:15;95285.31;;;41.04;19.27
42007;BME280;27696;42.704;23.304;2022-08-30T13:31:41;95301.38;;;40.75;19.18
42007;BME280;27696;42.704;23.304;2022-08-30T13:34:07;95308.78;;;40.45;19.33
42007;BME280;27696;42.704;23.304;2022-08-30T13:36:36;95299.13;;;42.33;17.47
42007;BME280;27696;42.704;23.304;2022-08-30T13:39:03;95296.72;;;40.18;19.86
42007;BME280;27696;42.704;23.304;2022-08-30T13:41:28;95294.34;;;40.38;18.86
42007;BME280;27696;42.704;23.304;2022-08-30T13:43:55;95294.53;;;40.17;19.79
42007;BME280;27696;42.704;23.304;2022-08-30T13:46:20;95293.59;;;39.43;20.26
42007;BME280;27696;42.704;23.304;2022-08-30T13:48:47;95294.31;;;39.31;20.86
42007;BME280;27696;42.704;23.304;2022-08-30T13:51:13;95282.91;;;39.17;21.06
42007;BME280;27696;42.704;23.304;2022-08-30T13:53:38;95288.44;;;40.58;19.21
42007;BME280;27696;42.704;23.304;2022-08-30T13:56:03;95274.22;;;40.68;19.70
42007;BME280;27696;42.704;23.304;2022-08-30T13:58:29;95281.84;;;40.65;20.30
42007;BME280;27696;42.704;23.304;2022-08-30T14:00:55;95271.03;;;39.53;21.40
42007;BME280;27696;42.704;23.304;2022-08-30T14:03:21;95276.25;;;40.42;19.82
42007;BME280;27696;42.704;23.304;2022-08-30T14:05:46;95273.13;;;39.88;20.17
42007;BME280;27696;42.704;23.304;2022-08-30T14:08:13;95273.44;;;40.42;19.99
42007;BME280;27696;42.704;23.304;2022-08-30T14:10:39;95271.47;;;40.82;19.65